createdAt,value
2018-12-03T00:02:07.317Z,97.63
2018-12-03T00:04:49.495Z,97.79
2018-12-03T00:07:32.845Z,97.72
2018-12-03T00:10:15.461Z,98.30
2018-12-03T00:12:57.731Z,98.15
2018-12-03T00:15:41.451Z,98.35
2018-12-03T00:18:24.625Z,98.09
2018-12-03T00:21:07.126Z,97.81
2018-12-03T00:23:50.181Z,98.14
2018-12-03T00:26:32.988Z,98.42
2018-12-03T00:29:15.845Z,98.14
2018-12-03T00:31:58.698Z,97.87
2018-12-03T00:34:41.180Z,97.75
2018-12-03T00:37:23.624Z,97.82
2018-12-03T00:40:07.123Z,97.96
2018-12-03T00:42:49.658Z,97.71
2018-12-03T00:45:31.777Z,97.95
2018-12-03T00:48:14.222Z,97.54
2018-12-03T00:50:56.578Z,97.63
2018-12-03T00:53:39.120Z,97.76
2018-12-03T00:56:21.833Z,97.47
2018-12-03T00:59:04.945Z,97.52
2018-12-03T01:01:47.352Z,97.71
2018-12-03T01:04:30.434Z,97.21
2018-12-03T01:07:14.024Z,97.51
2018-12-03T01:09:57.604Z,97.45
2018-12-03T01:12:40.318Z,97.45
2018-12-03T01:15:22.875Z,97.44
2018-12-03T01:18:06.814Z,97.65
2018-12-03T01:20:49.553Z,97.52
2018-12-03T01:23:31.960Z,97.27
2018-12-03T01:26:14.574Z,97.19
2018-12-03T01:28:56.728Z,97.19
2018-12-03T01:31:40.505Z,97.45
2018-12-03T01:34:22.576Z,97.80
2018-12-03T01:37:04.965Z,97.75
2018-12-03T01:39:47.702Z,98.17
2018-12-03T01:42:29.849Z,98.29
2018-12-03T01:45:12.941Z,98.30
2018-12-03T01:47:55.961Z,98.64
2018-12-03T01:50:38.240Z,98.28
2018-12-03T01:53:23.107Z,98.25
2018-12-03T01:56:05.078Z,98.25
2018-12-03T01:58:47.552Z,98.70
2018-12-03T02:01:30.229Z,99.29
2018-12-03T02:04:12.551Z,99.39
2018-12-03T02:06:54.860Z,99.82
2018-12-03T02:09:37.393Z,99.59
2018-12-03T02:12:19.561Z,99.85
2018-12-03T02:15:02.089Z,99.63
2018-12-03T02:17:45.153Z,99.54
2018-12-03T02:20:27.432Z,99.58
2018-12-03T02:23:09.480Z,99.38
2018-12-03T02:25:52.354Z,99.37
2018-12-03T02:28:34.345Z,99.35
2018-12-03T02:31:16.882Z,99.21
2018-12-03T02:33:59.791Z,99.15
2018-12-03T02:36:42.057Z,99.06
2018-12-03T02:39:24.145Z,99.12
2018-12-03T02:42:06.956Z,98.82
2018-12-03T02:44:49.444Z,98.65
2018-12-03T02:47:31.313Z,98.93
2018-12-03T02:50:15.532Z,99.05
2018-12-03T02:52:58.453Z,98.97
2018-12-03T02:55:40.682Z,98.72
2018-12-03T02:58:23.558Z,98.24
2018-12-03T03:01:05.855Z,98.60
2018-12-03T03:03:48.819Z,98.18
2018-12-03T03:06:31.067Z,98.06
2018-12-03T03:09:13.801Z,98.08
2018-12-03T03:11:55.771Z,98.13
2018-12-03T03:14:38.650Z,97.91
2018-12-03T03:17:20.786Z,98.40
2018-12-03T03:20:03.317Z,98.14
2018-12-03T03:22:46.010Z,97.91
2018-12-03T03:25:28.458Z,97.95
2018-12-03T03:28:10.592Z,98.17
2018-12-03T03:30:56.474Z,97.79
2018-12-03T03:33:38.827Z,97.55
2018-12-03T03:36:21.180Z,97.45
2018-12-03T03:39:08.412Z,96.44
2018-12-03T03:41:51.269Z,95.92
2018-12-03T03:44:33.467Z,95.51
2018-12-03T03:47:16.190Z,95.20
2018-12-03T03:49:58.403Z,95.09
2018-12-03T03:52:40.823Z,95.11
2018-12-03T03:55:23.201Z,95.68
2018-12-03T03:58:05.968Z,95.53
2018-12-03T04:00:48.282Z,95.21
2018-12-03T04:03:30.635Z,94.92
2018-12-03T04:06:13.930Z,95.45
2018-12-03T04:08:56.391Z,95.03
2018-12-03T04:11:38.901Z,95.06
2018-12-03T04:14:21.404Z,95.05
2018-12-03T04:17:04.674Z,94.99
2018-12-03T04:19:47.046Z,95.19
2018-12-03T04:22:29.545Z,95.59
2018-12-03T04:25:13.009Z,95.71
2018-12-03T04:27:55.320Z,95.41
2018-12-03T04:30:38.253Z,95.90
2018-12-03T04:33:20.421Z,95.77
2018-12-03T04:36:02.846Z,96.77
2018-12-03T04:38:45.261Z,97.59
2018-12-03T04:41:27.677Z,97.87
2018-12-03T04:44:10.031Z,97.88
2018-12-03T04:46:52.908Z,97.83
2018-12-03T04:49:35.006Z,97.64
2018-12-03T04:52:17.521Z,97.66
2018-12-03T04:54:59.983Z,97.38
2018-12-03T04:57:42.442Z,97.41
2018-12-03T05:00:24.874Z,97.63
2018-12-03T05:03:07.374Z,97.34
2018-12-03T05:05:49.855Z,97.37
2018-12-03T05:08:32.822Z,97.15
2018-12-03T05:11:15.593Z,97.01
2018-12-03T05:13:58.027Z,96.98
2018-12-03T05:16:40.365Z,97.37
2018-12-03T05:19:23.075Z,97.57
2018-12-03T05:22:05.538Z,97.60
2018-12-03T05:24:47.706Z,97.78
2018-12-03T05:27:30.163Z,97.63
2018-12-03T05:30:15.637Z,97.75
2018-12-03T05:32:57.998Z,97.36
2018-12-03T12:50:21.195Z,81.12
2018-12-03T17:21:12.815Z,92.59
2018-12-03T17:24:14.406Z,92.62
2018-12-03T17:27:24.539Z,92.75
2018-12-03T17:30:17.931Z,92.69
2018-12-03T19:35:27.266Z,92.96
2018-12-03T19:41:27.507Z,94.21
2018-12-03T19:50:22.677Z,94.61
2018-12-03T19:53:05.765Z,94.54
2018-12-03T19:55:53.206Z,94.45
2018-12-03T19:58:36.665Z,94.28
2018-12-03T20:01:46.066Z,94.26
2018-12-03T20:04:53.926Z,94.53
2018-12-03T20:08:01.107Z,94.62
2018-12-03T20:14:04.655Z,94.07
2018-12-03T20:16:52.680Z,93.94
2018-12-03T20:20:01.445Z,93.68
2018-12-03T20:22:57.683Z,93.56
2018-12-03T20:32:28.663Z,92.45
2018-12-03T20:35:36.589Z,92.15
2018-12-03T20:38:42.043Z,92.16
2018-12-03T20:41:40.607Z,91.81
2018-12-03T20:45:12.068Z,91.82
2018-12-03T20:51:11.882Z,91.54
2018-12-03T20:57:15.239Z,92.65
2018-12-03T21:03:06.905Z,93.87
2018-12-03T21:06:06.992Z,94.82
2018-12-03T21:11:50.976Z,94.74
2018-12-03T21:17:53.076Z,95.20
2018-12-03T21:20:48.285Z,95.61
2018-12-03T21:23:50.276Z,96.10
2018-12-03T21:26:40.064Z,96.20
2018-12-03T21:32:32.697Z,96.71
2018-12-03T21:38:30.938Z,97.13
2018-12-03T21:41:20.431Z,96.72
2018-12-03T21:44:12.940Z,96.91
2018-12-03T21:50:07.411Z,95.54
2018-12-03T21:52:56.942Z,95.39
2018-12-03T21:59:13.224Z,95.98
2018-12-03T22:08:20.823Z,95.83
2018-12-03T22:11:10.601Z,95.71
2018-12-03T22:17:16.994Z,95.34
2018-12-03T22:20:17.275Z,94.94
